Ashland, Alabama
Current Conditions -  °F | °C
As of 4:53 PM on Thursday 27 Nov 2014 (Local Time) from KANB Reporting Station
Overcast Overcast  
Wind Chill: 40°   Ceiling: 4500
Heat Index: 43°   Visibility: 10mi
Dew Point: 26°   Wind: 5mph
Humidity: 51%   Direction: NA
Pressure: 30.39"   Gusts: NA
Location:  33.27°N, 85.84°W
Report Text: KANB 272253Z AUTO VRB04KT 10SM OVC045 06/M03 A3039 RMK AO2 SLP302 T00611033
Loading
Personal Weather Stations






























Interactive Weather Map New forecast layout! Learn more

10-Day Weather Forecast

Advertisements
Track Severe Weather on mobile